sensor_id;sensor_type;location;lat;lon;timestamp;pressure;altitude;pressure_sealevel;temperature;humidity
67517;BME280;68821;59.134;37.894;2024-01-15T00:02:19;97895.94;;;-11.25;71.40
67517;BME280;68821;59.134;37.894;2024-01-15T00:04:45;97898.50;;;-11.23;70.50
67517;BME280;68821;59.134;37.894;2024-01-15T00:07:11;97899.63;;;-11.18;70.65
67517;BME280;68821;59.134;37.894;2024-01-15T00:09:37;97895.63;;;-11.16;71.90
67517;BME280;68821;59.134;37.894;2024-01-15T00:12:03;97892.31;;;-11.17;71.11
67517;BME280;68821;59.134;37.894;2024-01-15T00:14:29;97896.50;;;-11.16;72.18
67517;BME280;68821;59.134;37.894;2024-01-15T00:16:55;97894.97;;;-11.14;71.82
67517;BME280;68821;59.134;37.894;2024-01-15T00:19:22;97876.94;;;-11.11;70.85
67517;BME280;68821;59.134;37.894;2024-01-15T00:21:48;97882.75;;;-11.10;72.08
67517;BME280;68821;59.134;37.894;2024-01-15T00:24:14;97884.47;;;-11.09;70.97
67517;BME280;68821;59.134;37.894;2024-01-15T00:26:40;97873.78;;;-11.08;70.32
67517;BME280;68821;59.134;37.894;2024-01-15T00:29:09;97875.59;;;-11.06;71.60
67517;BME280;68821;59.134;37.894;2024-01-15T00:31:35;97866.59;;;-11.04;71.38
67517;BME280;68821;59.134;37.894;2024-01-15T00:34:01;97874.06;;;-11.04;70.69
67517;BME280;68821;59.134;37.894;2024-01-15T00:36:28;97872.53;;;-11.02;71.65
67517;BME280;68821;59.134;37.894;2024-01-15T00:38:54;97866.81;;;-11.01;70.85
67517;BME280;68821;59.134;37.894;2024-01-15T00:41:21;97865.06;;;-11.02;71.63
67517;BME280;68821;59.134;37.894;2024-01-15T00:43:47;97856.03;;;-11.01;70.43
67517;BME280;68821;59.134;37.894;2024-01-15T00:46:15;97856.69;;;-11.04;71.37
67517;BME280;68821;59.134;37.894;2024-01-15T00:48:41;97850.19;;;-11.02;71.35
67517;BME280;68821;59.134;37.894;2024-01-15T00:51:07;97850.28;;;-11.00;71.79
67517;BME280;68821;59.134;37.894;2024-01-15T00:53:34;97836.84;;;-11.04;71.18
67517;BME280;68821;59.134;37.894;2024-01-15T00:56:00;97852.03;;;-10.99;70.58
67517;BME280;68821;59.134;37.894;2024-01-15T00:58:26;97841.31;;;-10.98;70.51
67517;BME280;68821;59.134;37.894;2024-01-15T01:00:53;97833.72;;;-11.01;71.96
67517;BME280;68821;59.134;37.894;2024-01-15T01:03:19;97838.94;;;-10.97;71.19
67517;BME280;68821;59.134;37.894;2024-01-15T01:05:45;97834.81;;;-10.96;71.21
67517;BME280;68821;59.134;37.894;2024-01-15T01:08:11;97835.78;;;-10.94;71.47
67517;BME280;68821;59.134;37.894;2024-01-15T01:10:37;97827.47;;;-10.95;71.58
67517;BME280;68821;59.134;37.894;2024-01-15T01:13:04;97823.28;;;-10.96;70.58
67517;BME280;68821;59.134;37.894;2024-01-15T01:15:30;97825.09;;;-10.93;71.08
67517;BME280;68821;59.134;37.894;2024-01-15T01:17:56;97820.88;;;-10.94;71.03
67517;BME280;68821;59.134;37.894;2024-01-15T01:20:22;97816.88;;;-10.92;70.70
67517;BME280;68821;59.134;37.894;2024-01-15T01:22:48;97824.50;;;-10.89;71.76
67517;BME280;68821;59.134;37.894;2024-01-15T01:25:15;97817.06;;;-10.89;71.81
67517;BME280;68821;59.134;37.894;2024-01-15T01:27:41;97807.31;;;-10.86;71.95
67517;BME280;68821;59.134;37.894;2024-01-15T01:30:09;97810.00;;;-10.83;71.03
67517;BME280;68821;59.134;37.894;2024-01-15T01:32:35;97798.44;;;-10.82;72.06
67517;BME280;68821;59.134;37.894;2024-01-15T01:35:01;97811.78;;;-10.80;72.20
67517;BME280;68821;59.134;37.894;2024-01-15T01:37:28;97806.03;;;-10.79;71.30
67517;BME280;68821;59.134;37.894;2024-01-15T01:39:54;97803.66;;;-10.78;70.81
67517;BME280;68821;59.134;37.894;2024-01-15T01:42:19;97794.66;;;-10.76;71.25
67517;BME280;68821;59.134;37.894;2024-01-15T01:44:46;97793.81;;;-10.76;71.27
67517;BME280;68821;59.134;37.894;2024-01-15T01:47:12;97789.63;;;-10.77;71.29
67517;BME280;68821;59.134;37.894;2024-01-15T01:49:38;97794.66;;;-10.76;71.09
67517;BME280;68821;59.134;37.894;2024-01-15T01:52:05;97790.50;;;-10.77;72.32
67517;BME280;68821;59.134;37.894;2024-01-15T01:54:32;97789.63;;;-10.77;71.25
67517;BME280;68821;59.134;37.894;2024-01-15T01:56:59;97784.59;;;-10.79;71.36
67517;BME280;68821;59.134;37.894;2024-01-15T01:59:27;97782.16;;;-10.77;71.14
67517;BME280;68821;59.134;37.894;2024-01-15T02:01:54;97781.31;;;-10.78;70.95
67517;BME280;68821;59.134;37.894;2024-01-15T02:04:23;97779.53;;;-10.80;71.29
67517;BME280;68821;59.134;37.894;2024-01-15T02:06:50;97773.63;;;-10.82;71.40
67517;BME280;68821;59.134;37.894;2024-01-15T02:09:17;97775.50;;;-10.78;71.04
67517;BME280;68821;59.134;37.894;2024-01-15T02:11:46;97781.31;;;-10.78;71.53
67517;BME280;68821;59.134;37.894;2024-01-15T02:14:12;97773.97;;;-10.76;72.59
67517;BME280;68821;59.134;37.894;2024-01-15T02:16:38;97769.84;;;-10.76;72.35
67517;BME280;68821;59.134;37.894;2024-01-15T02:19:04;97767.47;;;-10.74;71.78
67517;BME280;68821;59.134;37.894;2024-01-15T02:21:33;97766.88;;;-10.70;71.86
67517;BME280;68821;59.134;37.894;2024-01-15T02:24:00;97770.31;;;-10.68;71.38
67517;BME280;68821;59.134;37.894;2024-01-15T02:26:26;97770.47;;;-10.65;71.51
67517;BME280;68821;59.134;37.894;2024-01-15T02:28:52;97767.31;;;-10.62;70.86
67517;BME280;68821;59.134;37.894;2024-01-15T02:31:18;97765.84;;;-10.59;71.32
67517;BME280;68821;59.134;37.894;2024-01-15T02:33:44;97757.66;;;-10.58;70.91
67517;BME280;68821;59.134;37.894;2024-01-15T02:36:12;97761.22;;;-10.53;71.21
67517;BME280;68821;59.134;37.894;2024-01-15T02:38:38;97771.16;;;-10.53;71.12
67517;BME280;68821;59.134;37.894;2024-01-15T02:41:04;97766.19;;;-10.53;72.25
67517;BME280;68821;59.134;37.894;2024-01-15T02:43:30;97760.38;;;-10.53;72.03
67517;BME280;68821;59.134;37.894;2024-01-15T02:45:56;97767.22;;;-10.49;71.80
67517;BME280;68821;59.134;37.894;2024-01-15T02:48:22;97759.03;;;-10.48;72.32
67517;BME280;68821;59.134;37.894;2024-01-15T02:50:48;97764.84;;;-10.47;72.83
67517;BME280;68821;59.134;37.894;2024-01-15T02:53:14;97759.03;;;-10.48;71.73
67517;BME280;68821;59.134;37.894;2024-01-15T02:55:40;97744.97;;;-10.47;70.94
67517;BME280;68821;59.134;37.894;2024-01-15T02:58:07;97749.25;;;-10.45;71.07
67517;BME280;68821;59.134;37.894;2024-01-15T03:00:33;97736.09;;;-10.44;71.79
67517;BME280;68821;59.134;37.894;2024-01-15T03:02:59;97738.81;;;-10.39;73.14
67517;BME280;68821;59.134;37.894;2024-01-15T03:05:25;97746.41;;;-10.36;72.21
67517;BME280;68821;59.134;37.894;2024-01-15T03:07:51;97739.84;;;-10.36;72.76
67517;BME280;68821;59.134;37.894;2024-01-15T03:10:17;97734.09;;;-10.35;72.66
67517;BME280;68821;59.134;37.894;2024-01-15T03:12:43;97729.13;;;-10.35;71.95
67517;BME280;68821;59.134;37.894;2024-01-15T03:15:09;97733.34;;;-10.34;72.27
67517;BME280;68821;59.134;37.894;2024-01-15T03:17:35;97725.94;;;-10.32;71.89
67517;BME280;68821;59.134;37.894;2024-01-15T03:20:02;97712.78;;;-10.31;72.82
67517;BME280;68821;59.134;37.894;2024-01-15T03:22:28;97721.06;;;-10.30;71.76
67517;BME280;68821;59.134;37.894;2024-01-15T03:24:54;97719.44;;;-10.30;72.22
67517;BME280;68821;59.134;37.894;2024-01-15T03:27:21;97715.56;;;-10.25;72.67
67517;BME280;68821;59.134;37.894;2024-01-15T03:29:47;97713.94;;;-10.24;71.44
67517;BME280;68821;59.134;37.894;2024-01-15T03:32:13;97710.75;;;-10.22;73.15
67517;BME280;68821;59.134;37.894;2024-01-15T03:34:39;97703.38;;;-10.20;71.44
67517;BME280;68821;59.134;37.894;2024-01-15T03:37:05;97706.81;;;-10.18;72.62
67517;BME280;68821;59.134;37.894;2024-01-15T03:39:31;97706.06;;;-10.17;72.79
67517;BME280;68821;59.134;37.894;2024-01-15T03:41:57;97712.91;;;-10.13;72.10
67517;BME280;68821;59.134;37.894;2024-01-15T03:44:23;97705.59;;;-10.10;72.21
67517;BME280;68821;59.134;37.894;2024-01-15T03:46:50;97704.91;;;-10.07;72.89
67517;BME280;68821;59.134;37.894;2024-01-15T03:49:16;97705.00;;;-10.06;71.71
67517;BME280;68821;59.134;37.894;2024-01-15T03:51:42;97700.81;;;-10.07;72.69
67517;BME280;68821;59.134;37.894;2024-01-15T03:54:08;97697.38;;;-10.09;72.88
67517;BME280;68821;59.134;37.894;2024-01-15T03:56:34;97705.00;;;-10.06;72.15
67517;BME280;68821;59.134;37.894;2024-01-15T03:59:01;97695.91;;;-10.05;71.48
67517;BME280;68821;59.134;37.894;2024-01-15T04:01:27;97694.44;;;-10.02;70.86
67517;BME280;68821;59.134;37.894;2024-01-15T04:03:53;97694.63;;;-9.99;71.44
67517;BME280;68821;59.134;37.894;2024-01-15T04:06:19;97692.91;;;-10.00;71.47
67517;BME280;68821;59.134;37.894;2024-01-15T04:08:45;97690.50;;;-9.98;71.54
67517;BME280;68821;59.134;37.894;2024-01-15T04:11:11;97688.88;;;-9.98;72.30
67517;BME280;68821;59.134;37.894;2024-01-15T04:13:37;97678.94;;;-9.98;71.83
67517;BME280;68821;59.134;37.894;2024-01-15T04:16:03;97678.84;;;-9.99;72.93
67517;BME280;68821;59.134;37.894;2024-01-15T04:18:29;97675.59;;;-9.98;72.10
67517;BME280;68821;59.134;37.894;2024-01-15T04:20:55;97678.16;;;-9.97;73.07
67517;BME280;68821;59.134;37.894;2024-01-15T04:23:21;97681.41;;;-9.98;72.20
67517;BME280;68821;59.134;37.894;2024-01-15T04:25:47;97678.94;;;-9.98;72.26
67517;BME280;68821;59.134;37.894;2024-01-15T04:28:13;97670.72;;;-9.97;72.11
67517;BME280;68821;59.134;37.894;2024-01-15T04:30:39;97677.56;;;-9.93;71.98
67517;BME280;68821;59.134;37.894;2024-01-15T04:33:05;97676.00;;;-9.90;72.00
67517;BME280;68821;59.134;37.894;2024-01-15T04:35:32;97664.44;;;-9.90;73.02
67517;BME280;68821;59.134;37.894;2024-01-15T04:37:58;97669.63;;;-9.85;72.60
67517;BME280;68821;59.134;37.894;2024-01-15T04:40:25;97663.97;;;-9.83;72.25
67517;BME280;68821;59.134;37.894;2024-01-15T04:42:54;97667.31;;;-9.82;72.46
67517;BME280;68821;59.134;37.894;2024-01-15T04:45:20;97660.81;;;-9.80;73.24
67517;BME280;68821;59.134;37.894;2024-01-15T04:47:48;97665.78;;;-9.80;72.84
67517;BME280;68821;59.134;37.894;2024-01-15T04:50:15;97664.97;;;-9.79;72.43
67517;BME280;68821;59.134;37.894;2024-01-15T04:52:41;97666.84;;;-9.75;72.71
67517;BME280;68821;59.134;37.894;2024-01-15T04:55:07;97660.25;;;-9.75;72.27
67517;BME280;68821;59.134;37.894;2024-01-15T04:57:33;97652.25;;;-9.69;73.68
67517;BME280;68821;59.134;37.894;2024-01-15T04:59:59;97663.97;;;-9.66;73.60
67517;BME280;68821;59.134;37.894;2024-01-15T05:02:25;97653.41;;;-9.62;73.83
67517;BME280;68821;59.134;37.894;2024-01-15T05:04:54;97653.34;;;-9.64;73.29
67517;BME280;68821;59.134;37.894;2024-01-15T05:07:20;97652.56;;;-9.63;73.33
67517;BME280;68821;59.134;37.894;2024-01-15T05:09:46;97651.94;;;-9.59;72.54
67517;BME280;68821;59.134;37.894;2024-01-15T05:12:13;97651.31;;;-9.55;73.50
67517;BME280;68821;59.134;37.894;2024-01-15T05:14:39;97652.25;;;-9.53;74.06
67517;BME280;68821;59.134;37.894;2024-01-15T05:17:05;97642.53;;;-9.48;72.32
67517;BME280;68821;59.134;37.894;2024-01-15T05:19:31;97645.09;;;-9.46;72.29
67517;BME280;68821;59.134;37.894;2024-01-15T05:21:57;97641.25;;;-9.41;72.82
67517;BME280;68821;59.134;37.894;2024-01-15T05:24:24;97643.03;;;-9.39;73.07
67517;BME280;68821;59.134;37.894;2024-01-15T05:26:52;97649.94;;;-9.33;73.48
67517;BME280;68821;59.134;37.894;2024-01-15T05:29:18;97649.22;;;-9.31;73.36
67517;BME280;68821;59.134;37.894;2024-01-15T05:31:44;97646.03;;;-9.28;72.71
67517;BME280;68821;59.134;37.894;2024-01-15T05:34:10;97652.94;;;-9.22;73.15
67517;BME280;68821;59.134;37.894;2024-01-15T05:36:36;97651.47;;;-9.19;73.15
67517;BME280;68821;59.134;37.894;2024-01-15T05:39:02;97640.81;;;-9.16;73.54
67517;BME280;68821;59.134;37.894;2024-01-15T05:41:28;97629.13;;;-9.17;72.61
67517;BME280;68821;59.134;37.894;2024-01-15T05:43:54;97630.94;;;-9.15;73.49
67517;BME280;68821;59.134;37.894;2024-01-15T05:46:21;97646.84;;;-9.11;73.32
67517;BME280;68821;59.134;37.894;2024-01-15T05:48:47;97638.63;;;-9.10;72.42
67517;BME280;68821;59.134;37.894;2024-01-15T05:51:13;97643.91;;;-9.04;73.45
67517;BME280;68821;59.134;37.894;2024-01-15T05:53:39;97635.81;;;-9.00;72.74
67517;BME280;68821;59.134;37.894;2024-01-15T05:56:07;97636.81;;;-8.96;73.20
67517;BME280;68821;59.134;37.894;2024-01-15T05:58:33;97641.09;;;-8.94;72.90
67517;BME280;68821;59.134;37.894;2024-01-15T06:00:59;97631.13;;;-8.94;72.78
67517;BME280;68821;59.134;37.894;2024-01-15T06:03:25;97642.09;;;-8.90;73.62
67517;BME280;68821;59.134;37.894;2024-01-15T06:05:52;97634.69;;;-8.88;73.48
67517;BME280;68821;59.134;37.894;2024-01-15T06:08:18;97637.41;;;-8.84;73.32
67517;BME280;68821;59.134;37.894;2024-01-15T06:10:46;97635.91;;;-8.80;73.29
67517;BME280;68821;59.134;37.894;2024-01-15T06:13:12;97634.41;;;-8.77;73.49
67517;BME280;68821;59.134;37.894;2024-01-15T06:15:39;97634.41;;;-8.77;73.97
67517;BME280;68821;59.134;37.894;2024-01-15T06:18:05;97642.97;;;-8.72;73.18
67517;BME280;68821;59.134;37.894;2024-01-15T06:20:31;97633.06;;;-8.70;73.43
67517;BME280;68821;59.134;37.894;2024-01-15T06:22:57;97628.25;;;-8.67;73.69
67517;BME280;68821;59.134;37.894;2024-01-15T06:25:23;97630.81;;;-8.65;73.90
67517;BME280;68821;59.134;37.894;2024-01-15T06:27:49;97633.34;;;-8.64;73.38
67517;BME280;68821;59.134;37.894;2024-01-15T06:30:15;97629.25;;;-8.63;73.70
67517;BME280;68821;59.134;37.894;2024-01-15T06:32:41;97624.41;;;-8.60;73.67
67517;BME280;68821;59.134;37.894;2024-01-15T06:35:07;97622.00;;;-8.59;73.57
67517;BME280;68821;59.134;37.894;2024-01-15T06:37:36;97625.50;;;-8.55;73.54
67517;BME280;68821;59.134;37.894;2024-01-15T06:40:02;97623.03;;;-8.54;74.00
67517;BME280;68821;59.134;37.894;2024-01-15T06:42:28;97622.41;;;-8.50;73.24
67517;BME280;68821;59.134;37.894;2024-01-15T06:44:54;97624.97;;;-8.48;73.24
67517;BME280;68821;59.134;37.894;2024-01-15T06:47:20;97625.06;;;-8.46;73.84
67517;BME280;68821;59.134;37.894;2024-01-15T06:49:46;97619.44;;;-8.42;72.92
67517;BME280;68821;59.134;37.894;2024-01-15T06:52:12;97613.66;;;-8.41;73.62
67517;BME280;68821;59.134;37.894;2024-01-15T06:54:38;97620.44;;;-8.37;74.37
67517;BME280;68821;59.134;37.894;2024-01-15T06:57:05;97616.47;;;-8.34;73.74
67517;BME280;68821;59.134;37.894;2024-01-15T06:59:33;97617.31;;;-8.33;74.19
67517;BME280;68821;59.134;37.894;2024-01-15T07:01:59;97623.31;;;-8.30;74.46
67517;BME280;68821;59.134;37.894;2024-01-15T07:04:25;97619.16;;;-8.29;74.29
67517;BME280;68821;59.134;37.894;2024-01-15T07:06:51;97630.13;;;-8.25;73.93
67517;BME280;68821;59.134;37.894;2024-01-15T07:09:18;97626.91;;;-8.23;74.07
67517;BME280;68821;59.134;37.894;2024-01-15T07:11:45;97615.34;;;-8.22;74.50
67517;BME280;68821;59.134;37.894;2024-01-15T07:14:12;97613.63;;;-8.23;74.00
67517;BME280;68821;59.134;37.894;2024-01-15T07:16:38;97617.75;;;-8.24;73.36
67517;BME280;68821;59.134;37.894;2024-01-15T07:19:04;97607.25;;;-8.17;74.12
67517;BME280;68821;59.134;37.894;2024-01-15T07:21:30;97600.59;;;-8.18;73.92
67517;BME280;68821;59.134;37.894;2024-01-15T07:23:56;97607.41;;;-8.14;74.16
67517;BME280;68821;59.134;37.894;2024-01-15T07:26:22;97609.19;;;-8.11;74.16
67517;BME280;68821;59.134;37.894;2024-01-15T07:28:48;97615.16;;;-8.07;74.16
67517;BME280;68821;59.134;37.894;2024-01-15T07:31:17;97616.94;;;-8.05;74.03
67517;BME280;68821;59.134;37.894;2024-01-15T07:33:43;97612.94;;;-8.01;74.67
67517;BME280;68821;59.134;37.894;2024-01-15T07:36:10;97613.88;;;-7.99;74.01
67517;BME280;68821;59.134;37.894;2024-01-15T07:38:36;97611.50;;;-7.96;74.71
67517;BME280;68821;59.134;37.894;2024-01-15T07:41:03;97616.72;;;-7.92;73.92
67517;BME280;68821;59.134;37.894;2024-01-15T07:43:29;97607.59;;;-7.91;74.39
67517;BME280;68821;59.134;37.894;2024-01-15T07:45:56;97616.06;;;-7.87;74.43
67517;BME280;68821;59.134;37.894;2024-01-15T07:48:23;97610.28;;;-7.86;74.07
67517;BME280;68821;59.134;37.894;2024-01-15T07:50:49;97602.06;;;-7.84;74.42
67517;BME280;68821;59.134;37.894;2024-01-15T07:53:15;97607.97;;;-7.82;74.22
67517;BME280;68821;59.134;37.894;2024-01-15T07:55:42;97599.72;;;-7.81;74.27
67517;BME280;68821;59.134;37.894;2024-01-15T07:58:08;97599.91;;;-7.76;74.57
67517;BME280;68821;59.134;37.894;2024-01-15T08:00:34;97595.78;;;-7.76;74.86
67517;BME280;68821;59.134;37.894;2024-01-15T08:03:00;97595.19;;;-7.70;74.77
67517;BME280;68821;59.134;37.894;2024-01-15T08:05:28;97583.44;;;-7.73;74.25
67517;BME280;68821;59.134;37.894;2024-01-15T08:07:55;97586.31;;;-7.63;75.38
67517;BME280;68821;59.134;37.894;2024-01-15T08:10:21;97599.00;;;-7.59;74.98
67517;BME280;68821;59.134;37.894;2024-01-15T08:12:48;97593.38;;;-7.55;75.17
67517;BME280;68821;59.134;37.894;2024-01-15T08:15:14;97590.22;;;-7.51;74.57
67517;BME280;68821;59.134;37.894;2024-01-15T08:17:40;97590.31;;;-7.47;74.69
67517;BME280;68821;59.134;37.894;2024-01-15T08:20:07;97594.66;;;-7.43;75.45
67517;BME280;68821;59.134;37.894;2024-01-15T08:22:34;97593.06;;;-7.41;74.37
67517;BME280;68821;59.134;37.894;2024-01-15T08:25:00;97593.25;;;-7.37;75.13
67517;BME280;68821;59.134;37.894;2024-01-15T08:27:26;97595.06;;;-7.34;74.82
67517;BME280;68821;59.134;37.894;2024-01-15T08:29:53;97591.91;;;-7.30;74.49
67517;BME280;68821;59.134;37.894;2024-01-15T08:32:21;97599.56;;;-7.25;75.63
67517;BME280;68821;59.134;37.894;2024-01-15T08:34:47;97596.28;;;-7.24;75.04
67517;BME280;68821;59.134;37.894;2024-01-15T08:37:15;97593.84;;;-7.23;74.45
67517;BME280;68821;59.134;37.894;2024-01-15T08:39:41;97596.41;;;-7.21;75.27
67517;BME280;68821;59.134;37.894;2024-01-15T08:42:07;97594.91;;;-7.18;74.75
67517;BME280;68821;59.134;37.894;2024-01-15T08:44:34;97597.50;;;-7.15;75.78
67517;BME280;68821;59.134;37.894;2024-01-15T08:47:00;97596.00;;;-7.11;74.59
67517;BME280;68821;59.134;37.894;2024-01-15T08:49:27;97586.78;;;-7.12;75.99
67517;BME280;68821;59.134;37.894;2024-01-15T08:51:53;97603.72;;;-7.05;75.22
67517;BME280;68821;59.134;37.894;2024-01-15T08:54:19;97598.00;;;-7.02;74.60
67517;BME280;68821;59.134;37.894;2024-01-15T08:56:46;97593.16;;;-6.99;74.85
67517;BME280;68821;59.134;37.894;2024-01-15T08:59:12;97597.34;;;-6.98;75.33
67517;BME280;68821;59.134;37.894;2024-01-15T09:01:38;97594.97;;;-6.95;75.05
67517;BME280;68821;59.134;37.894;2024-01-15T09:04:05;97586.84;;;-6.90;75.58
67517;BME280;68821;59.134;37.894;2024-01-15T09:06:33;97578.59;;;-6.89;74.94
67517;BME280;68821;59.134;37.894;2024-01-15T09:09:00;97584.59;;;-6.83;75.72
67517;BME280;68821;59.134;37.894;2024-01-15T09:11:26;97584.66;;;-6.82;74.78
67517;BME280;68821;59.134;37.894;2024-01-15T09:13:52;97589.06;;;-6.76;75.79
67517;BME280;68821;59.134;37.894;2024-01-15T09:16:19;97586.63;;;-6.75;75.10
67517;BME280;68821;59.134;37.894;2024-01-15T09:18:45;97581.69;;;-6.73;74.72
67517;BME280;68821;59.134;37.894;2024-01-15T09:21:12;97580.97;;;-6.71;75.39
67517;BME280;68821;59.134;37.894;2024-01-15T09:23:39;97579.41;;;-6.67;75.78
67517;BME280;68821;59.134;37.894;2024-01-15T09:26:08;97581.25;;;-6.63;74.55
67517;BME280;68821;59.134;37.894;2024-01-15T09:28:34;97581.31;;;-6.61;75.49
67517;BME280;68821;59.134;37.894;2024-01-15T09:31:01;97571.38;;;-6.60;75.74
67517;BME280;68821;59.134;37.894;2024-01-15T09:33:27;97577.47;;;-6.53;74.93
67517;BME280;68821;59.134;37.894;2024-01-15T09:35:53;97577.59;;;-6.50;75.92
67517;BME280;68821;59.134;37.894;2024-01-15T09:38:20;97564.22;;;-6.51;75.30
67517;BME280;68821;59.134;37.894;2024-01-15T09:40:46;97573.50;;;-6.48;75.17
67517;BME280;68821;59.134;37.894;2024-01-15T09:43:13;97567.69;;;-6.47;75.61
67517;BME280;68821;59.134;37.894;2024-01-15T09:45:40;97574.59;;;-6.41;75.47
67517;BME280;68821;59.134;37.894;2024-01-15T09:48:06;97571.34;;;-6.39;74.94
67517;BME280;68821;59.134;37.894;2024-01-15T09:50:33;97567.25;;;-6.37;76.15
67517;BME280;68821;59.134;37.894;2024-01-15T09:52:59;97569.00;;;-6.34;76.30
67517;BME280;68821;59.134;37.894;2024-01-15T09:55:26;97570.72;;;-6.33;75.06
67517;BME280;68821;59.134;37.894;2024-01-15T09:57:55;97572.47;;;-6.31;76.11
67517;BME280;68821;59.134;37.894;2024-01-15T10:00:22;97572.53;;;-6.29;76.10
67517;BME280;68821;59.134;37.894;2024-01-15T10:02:48;97570.16;;;-6.26;76.36
67517;BME280;68821;59.134;37.894;2024-01-15T10:05:15;97571.13;;;-6.22;76.38
67517;BME280;68821;59.134;37.894;2024-01-15T10:07:42;97567.16;;;-6.17;75.79
67517;BME280;68821;59.134;37.894;2024-01-15T10:10:08;97554.66;;;-6.17;75.95
67517;BME280;68821;59.134;37.894;2024-01-15T10:12:36;97560.66;;;-6.12;76.51
67517;BME280;68821;59.134;37.894;2024-01-15T10:15:02;97564.88;;;-6.11;76.50
67517;BME280;68821;59.134;37.894;2024-01-15T10:17:30;97566.56;;;-6.10;75.61
67517;BME280;68821;59.134;37.894;2024-01-15T10:19:57;97567.38;;;-6.11;76.35
67517;BME280;68821;59.134;37.894;2024-01-15T10:22:23;97554.88;;;-6.11;76.20
67517;BME280;68821;59.134;37.894;2024-01-15T10:24:49;97565.81;;;-6.08;76.69
67517;BME280;68821;59.134;37.894;2024-01-15T10:27:15;97558.31;;;-6.08;75.85
67517;BME280;68821;59.134;37.894;2024-01-15T10:29:42;97555.88;;;-6.06;76.24
67517;BME280;68821;59.134;37.894;2024-01-15T10:32:08;97563.38;;;-6.06;75.88
67517;BME280;68821;59.134;37.894;2024-01-15T10:34:37;97555.13;;;-6.03;76.00
67517;BME280;68821;59.134;37.894;2024-01-15T10:37:04;97552.69;;;-6.02;75.68
67517;BME280;68821;59.134;37.894;2024-01-15T10:39:31;97552.75;;;-6.00;76.63
67517;BME280;68821;59.134;37.894;2024-01-15T10:41:57;97558.59;;;-6.00;76.53
67517;BME280;68821;59.134;37.894;2024-01-15T10:44:24;97551.94;;;-5.99;75.30
67517;BME280;68821;59.134;37.894;2024-01-15T10:46:51;97555.31;;;-5.99;76.20
67517;BME280;68821;59.134;37.894;2024-01-15T10:49:18;97551.25;;;-5.95;75.86
67517;BME280;68821;59.134;37.894;2024-01-15T10:51:46;97558.75;;;-5.95;75.88
67517;BME280;68821;59.134;37.894;2024-01-15T10:54:13;97553.78;;;-5.94;76.32
67517;BME280;68821;59.134;37.894;2024-01-15T10:56:40;97565.53;;;-5.91;76.14
67517;BME280;68821;59.134;37.894;2024-01-15T10:59:08;97558.84;;;-5.92;75.93
67517;BME280;68821;59.134;37.894;2024-01-15T11:01:37;97549.69;;;-5.92;76.13
67517;BME280;68821;59.134;37.894;2024-01-15T11:04:03;97554.81;;;-5.89;76.28
67517;BME280;68821;59.134;37.894;2024-01-15T11:06:44;97550.66;;;-5.88;75.84
67517;BME280;68821;59.134;37.894;2024-01-15T11:09:12;97550.66;;;-5.88;75.71
67517;BME280;68821;59.134;37.894;2024-01-15T11:11:44;97544.91;;;-5.86;76.49
67517;BME280;68821;59.134;37.894;2024-01-15T11:14:10;97542.47;;;-5.84;76.56
67517;BME280;68821;59.134;37.894;2024-01-15T11:16:55;97541.63;;;-5.84;76.00
67517;BME280;68821;59.134;37.894;2024-01-15T11:19:22;97538.31;;;-5.83;76.78
67517;BME280;68821;59.134;37.894;2024-01-15T11:21:48;97545.88;;;-5.82;76.73
67517;BME280;68821;59.134;37.894;2024-01-15T11:24:52;97549.38;;;-5.77;77.11
67517;BME280;68821;59.134;37.894;2024-01-15T11:27:40;97553.69;;;-5.73;76.86
67517;BME280;68821;59.134;37.894;2024-01-15T11:30:11;97547.97;;;-5.70;76.46
67517;BME280;68821;59.134;37.894;2024-01-15T11:32:38;97548.88;;;-5.68;77.06
67517;BME280;68821;59.134;37.894;2024-01-15T11:35:09;97542.25;;;-5.66;76.48
67517;BME280;68821;59.134;37.894;2024-01-15T11:40:36;97539.09;;;-5.60;76.50
67517;BME280;68821;59.134;37.894;2024-01-15T11:43:03;97536.72;;;-5.57;77.08
67517;BME280;68821;59.134;37.894;2024-01-15T11:45:30;97530.88;;;-5.58;76.07
67517;BME280;68821;59.134;37.894;2024-01-15T11:48:16;97523.34;;;-5.58;76.75
67517;BME280;68821;59.134;37.894;2024-01-15T11:50:44;97518.28;;;-5.59;75.88
67517;BME280;68821;59.134;37.894;2024-01-15T11:53:43;97522.53;;;-5.57;76.23
67517;BME280;68821;59.134;37.894;2024-01-15T11:56:17;97536.88;;;-5.53;77.09
67517;BME280;68821;59.134;37.894;2024-01-15T11:58:44;97536.88;;;-5.53;76.23
67517;BME280;68821;59.134;37.894;2024-01-15T12:01:11;97541.16;;;-5.49;76.54
67517;BME280;68821;59.134;37.894;2024-01-15T12:03:37;97526.28;;;-5.46;77.30
67517;BME280;68821;59.134;37.894;2024-01-15T12:06:08;97524.66;;;-5.43;77.47
67517;BME280;68821;59.134;37.894;2024-01-15T12:08:36;97533.94;;;-5.41;77.14
67517;BME280;68821;59.134;37.894;2024-01-15T12:11:06;97538.94;;;-5.41;77.43
67517;BME280;68821;59.134;37.894;2024-01-15T12:13:36;97542.28;;;-5.40;77.04
67517;BME280;68821;59.134;37.894;2024-01-15T12:16:03;97543.31;;;-5.35;77.45
67517;BME280;68821;59.134;37.894;2024-01-15T12:18:30;97541.59;;;-5.36;77.15
67517;BME280;68821;59.134;37.894;2024-01-15T12:20:57;97528.31;;;-5.34;76.64
67517;BME280;68821;59.134;37.894;2024-01-15T12:23:24;97530.09;;;-5.30;77.28
67517;BME280;68821;59.134;37.894;2024-01-15T12:25:54;97540.13;;;-5.30;77.10
67517;BME280;68821;59.134;37.894;2024-01-15T12:28:21;97536.91;;;-5.26;77.57
67517;BME280;68821;59.134;37.894;2024-01-15T12:30:49;97539.41;;;-5.27;77.03
67517;BME280;68821;59.134;37.894;2024-01-15T12:33:17;97545.41;;;-5.22;77.25
67517;BME280;68821;59.134;37.894;2024-01-15T12:35:44;97547.94;;;-5.20;77.55
67517;BME280;68821;59.134;37.894;2024-01-15T12:38:10;97550.53;;;-5.17;76.67
67517;BME280;68821;59.134;37.894;2024-01-15T12:40:37;97545.59;;;-5.16;77.24
67517;BME280;68821;59.134;37.894;2024-01-15T12:43:05;97534.72;;;-5.16;77.32
67517;BME280;68821;59.134;37.894;2024-01-15T12:45:31;97538.97;;;-5.14;77.58
67517;BME280;68821;59.134;37.894;2024-01-15T12:47:57;97529.81;;;-5.13;76.50
67517;BME280;68821;59.134;37.894;2024-01-15T12:50:24;97536.63;;;-5.09;76.94